createdAt,value
2018-07-06T00:00:05.611Z,23.71
2018-07-06T00:00:37.236Z,23.64
2018-07-06T00:01:08.900Z,23.72
2018-07-06T00:01:40.570Z,23.70
2018-07-06T00:02:12.192Z,23.72
2018-07-06T00:02:43.817Z,23.72
2018-07-06T00:03:15.444Z,23.71
2018-07-06T00:03:47.064Z,23.72
2018-07-06T00:04:18.687Z,23.70
2018-07-06T00:04:50.311Z,23.71
2018-07-06T00:05:21.936Z,23.71
2018-07-06T00:05:53.607Z,23.71
2018-07-06T00:06:25.236Z,23.71
2018-07-06T00:06:56.859Z,23.71
2018-07-06T00:07:28.479Z,23.71
2018-07-06T00:08:00.109Z,23.71
2018-07-06T00:08:31.731Z,23.71
2018-07-06T00:09:03.357Z,23.71
2018-07-06T00:09:34.978Z,23.71
2018-07-06T00:10:06.722Z,23.72
2018-07-06T00:10:38.343Z,23.71
2018-07-06T00:11:09.968Z,23.71
2018-07-06T00:11:41.635Z,23.71
2018-07-06T00:12:13.259Z,23.71
2018-07-06T00:12:44.885Z,23.72
2018-07-06T00:13:16.512Z,23.71
2018-07-06T00:13:48.135Z,23.72
2018-07-06T00:14:19.760Z,23.72
2018-07-06T00:14:51.378Z,23.72
2018-07-06T00:15:23.009Z,23.72
2018-07-06T00:15:54.632Z,23.72
2018-07-06T00:16:26.251Z,23.71
2018-07-06T00:16:57.928Z,23.72
2018-07-06T00:17:29.547Z,23.71
2018-07-06T00:18:01.163Z,23.72
2018-07-06T00:18:32.784Z,23.71
2018-07-06T00:19:04.407Z,23.71
2018-07-06T00:19:36.031Z,23.71
2018-07-06T00:20:07.655Z,23.72
2018-07-06T00:20:39.283Z,23.71
2018-07-06T00:21:10.908Z,23.71
2018-07-06T00:21:42.527Z,23.71
2018-07-06T00:22:14.206Z,23.71
2018-07-06T00:22:45.832Z,23.71
2018-07-06T00:23:17.456Z,23.71
2018-07-06T00:23:49.080Z,23.71
2018-07-06T00:24:20.699Z,23.72
2018-07-06T00:24:52.320Z,23.70
2018-07-06T00:25:23.938Z,23.71
2018-07-06T00:25:55.560Z,23.70
2018-07-06T00:26:27.180Z,23.70
2018-07-06T00:26:58.804Z,23.71
2018-07-06T00:27:30.494Z,23.71
2018-07-06T00:28:02.123Z,23.71
2018-07-06T00:28:33.743Z,23.71
2018-07-06T00:29:05.368Z,23.71
2018-07-06T00:29:36.992Z,23.72
2018-07-06T00:30:08.615Z,23.71
2018-07-06T00:30:40.241Z,23.71
2018-07-06T00:31:11.862Z,23.66
2018-07-06T00:31:43.484Z,23.71
2018-07-06T00:32:15.109Z,23.71
2018-07-06T00:32:46.782Z,23.70
2018-07-06T00:33:18.403Z,23.70
2018-07-06T00:33:50.028Z,23.71
2018-07-06T00:34:21.684Z,23.71
2018-07-06T00:34:53.308Z,23.70
2018-07-06T00:35:24.927Z,23.69
2018-07-06T00:35:56.552Z,23.71
2018-07-06T00:36:28.177Z,23.71
2018-07-06T00:36:59.806Z,23.71
2018-07-06T00:37:31.433Z,23.71
2018-07-06T00:38:03.100Z,23.72
2018-07-06T00:38:34.724Z,23.72
2018-07-06T00:39:06.343Z,23.72
2018-07-06T00:39:37.966Z,23.72
2018-07-06T00:40:09.587Z,23.71
2018-07-06T00:40:41.207Z,23.72
2018-07-06T00:41:12.832Z,23.72
2018-07-06T00:41:44.454Z,23.72
2018-07-06T00:42:16.120Z,23.73
2018-07-06T00:42:47.751Z,23.71
2018-07-06T00:43:19.372Z,23.73
2018-07-06T00:43:51.212Z,23.73
2018-07-06T00:44:22.835Z,23.73
2018-07-06T00:44:54.463Z,23.74
2018-07-06T00:45:26.087Z,23.74
2018-07-06T00:45:57.712Z,23.74
2018-07-06T00:46:29.339Z,23.75
2018-07-06T00:47:00.964Z,23.75
2018-07-06T00:47:32.588Z,23.75
2018-07-06T00:48:04.216Z,23.75
2018-07-06T00:48:35.839Z,23.75
2018-07-06T00:49:07.500Z,23.75
2018-07-06T00:49:39.128Z,23.75
2018-07-06T00:50:10.796Z,23.75
2018-07-06T00:50:42.425Z,23.75
2018-07-06T00:51:14.107Z,23.75
2018-07-06T00:51:45.729Z,23.75
2018-07-06T00:52:17.350Z,23.75
2018-07-06T00:52:48.971Z,23.75
2018-07-06T00:53:20.600Z,23.75
2018-07-06T00:53:52.218Z,23.74
2018-07-06T00:54:23.839Z,23.74
2018-07-06T00:54:55.510Z,23.75
2018-07-06T00:55:27.116Z,23.75
2018-07-06T00:55:58.730Z,23.74
2018-07-06T00:56:30.391Z,23.75
2018-07-06T00:57:02.012Z,23.74
2018-07-06T00:57:33.668Z,23.74
2018-07-06T00:58:05.292Z,23.75
2018-07-06T00:58:36.907Z,23.74
2018-07-06T00:59:08.527Z,23.74
2018-07-06T00:59:40.212Z,23.74
2018-07-06T01:00:11.831Z,23.74
2018-07-06T01:00:43.456Z,23.74
2018-07-06T01:01:15.075Z,23.74
2018-07-06T01:01:46.788Z,23.74
2018-07-06T01:02:18.351Z,23.74
2018-07-06T01:02:50.012Z,23.74
2018-07-06T01:03:21.636Z,23.74
2018-07-06T01:03:53.263Z,23.74
2018-07-06T01:04:24.892Z,23.74
2018-07-06T01:04:56.547Z,23.74
2018-07-06T01:05:28.172Z,23.75
2018-07-06T01:05:59.794Z,23.75
2018-07-06T01:06:31.417Z,23.75
2018-07-06T01:07:03.039Z,23.74
2018-07-06T01:07:34.703Z,23.74
2018-07-06T01:08:06.331Z,23.75
2018-07-06T01:08:37.957Z,23.75
2018-07-06T01:09:09.626Z,23.75
2018-07-06T01:09:41.247Z,23.75
2018-07-06T01:10:12.914Z,23.75
2018-07-06T01:10:44.524Z,23.75
2018-07-06T01:11:16.148Z,23.74
2018-07-06T01:11:47.767Z,23.75
2018-07-06T01:12:19.391Z,23.75
2018-07-06T01:12:51.060Z,23.75
2018-07-06T01:13:22.728Z,23.76
2018-07-06T01:13:54.351Z,23.77
2018-07-06T01:14:25.976Z,23.78
2018-07-06T01:14:57.604Z,23.79
2018-07-06T01:15:29.227Z,23.79
2018-07-06T01:16:00.852Z,23.80
2018-07-06T01:16:32.471Z,23.80
2018-07-06T01:17:04.097Z,23.81
2018-07-06T01:17:35.724Z,23.82
2018-07-06T01:18:07.349Z,23.82
2018-07-06T01:18:39.024Z,23.82
2018-07-06T01:19:10.651Z,23.82
2018-07-06T01:19:42.267Z,23.83
2018-07-06T01:20:13.893Z,23.83
2018-07-06T01:20:45.519Z,23.84
2018-07-06T01:21:17.144Z,23.84
2018-07-06T01:21:48.767Z,23.84
2018-07-06T01:22:20.392Z,23.84
2018-07-06T01:22:52.013Z,23.85
2018-07-06T01:23:23.638Z,23.83
2018-07-06T01:23:55.312Z,23.84
2018-07-06T01:24:26.935Z,23.84
2018-07-06T01:24:58.550Z,23.84
2018-07-06T01:25:30.171Z,23.83
2018-07-06T01:26:01.796Z,23.84
2018-07-06T01:26:33.423Z,23.84
2018-07-06T01:27:05.048Z,23.84
2018-07-06T01:27:36.671Z,23.85
2018-07-06T01:28:08.290Z,23.84
2018-07-06T01:28:39.912Z,23.84
2018-07-06T01:29:11.575Z,23.85
2018-07-06T01:29:43.203Z,23.84
2018-07-06T01:30:14.828Z,23.85
2018-07-06T01:30:46.456Z,23.85
2018-07-06T01:31:18.079Z,23.85
2018-07-06T01:31:49.700Z,23.85
2018-07-06T01:32:21.324Z,23.86
2018-07-06T01:32:52.948Z,23.86
2018-07-06T01:33:24.571Z,23.86
2018-07-06T01:33:56.191Z,23.86
2018-07-06T01:34:27.859Z,23.85
2018-07-06T01:34:59.491Z,23.87
2018-07-06T01:35:31.116Z,23.85
2018-07-06T01:36:02.740Z,23.86
2018-07-06T01:36:34.362Z,23.86
2018-07-06T01:37:05.988Z,23.85
2018-07-06T01:37:37.656Z,23.86
2018-07-06T01:38:09.283Z,23.86
2018-07-06T01:38:40.903Z,23.85
2018-07-06T01:39:12.523Z,23.87
2018-07-06T01:39:44.148Z,23.87
2018-07-06T01:40:15.767Z,23.87
2018-07-06T01:40:47.392Z,23.87
2018-07-06T01:41:19.015Z,23.87
2018-07-06T01:41:50.679Z,23.87
2018-07-06T01:42:22.306Z,23.87
2018-07-06T01:42:53.930Z,23.88
2018-07-06T01:43:25.554Z,23.89
2018-07-06T01:43:57.182Z,23.82
2018-07-06T01:44:28.815Z,23.88
2018-07-06T01:45:00.515Z,23.88
2018-07-06T01:45:32.139Z,23.89
2018-07-06T01:46:03.771Z,23.89
2018-07-06T01:46:35.448Z,23.89
2018-07-06T01:47:07.072Z,23.88
2018-07-06T01:47:38.727Z,23.88
2018-07-06T01:48:10.347Z,23.89
2018-07-06T01:48:41.967Z,23.89
2018-07-06T01:49:13.593Z,23.84
2018-07-06T01:49:45.217Z,23.89
2018-07-06T01:50:16.883Z,23.88
2018-07-06T01:50:48.511Z,23.88
2018-07-06T01:51:20.137Z,23.88
2018-07-06T01:51:51.754Z,23.88
2018-07-06T01:52:23.384Z,23.88
2018-07-06T01:52:55.061Z,23.87
2018-07-06T01:53:26.674Z,23.88
2018-07-06T01:53:58.302Z,23.88
2018-07-06T01:54:29.919Z,23.87
2018-07-06T01:55:01.539Z,23.88
2018-07-06T01:55:33.165Z,23.88
2018-07-06T01:56:04.787Z,23.88
2018-07-06T01:56:36.407Z,23.87
2018-07-06T01:57:08.028Z,23.87
2018-07-06T01:57:39.695Z,23.87
2018-07-06T01:58:11.321Z,23.87
2018-07-06T01:58:42.939Z,23.87
2018-07-06T01:59:14.563Z,23.87
2018-07-06T01:59:46.187Z,23.87
2018-07-06T02:00:17.811Z,23.87
2018-07-06T02:00:49.435Z,23.87
2018-07-06T02:01:21.104Z,23.88
2018-07-06T02:01:52.731Z,23.87
2018-07-06T02:02:24.347Z,23.88
2018-07-06T02:02:55.968Z,23.88
2018-07-06T02:03:27.587Z,23.89
2018-07-06T02:03:59.207Z,23.88
2018-07-06T02:04:30.877Z,23.87
2018-07-06T02:05:02.500Z,23.88
2018-07-06T02:05:34.123Z,23.87
2018-07-06T02:06:05.751Z,23.88
2018-07-06T02:06:37.375Z,23.88
2018-07-06T02:07:09.004Z,23.88
2018-07-06T02:07:40.634Z,23.88
2018-07-06T02:08:12.256Z,23.88
2018-07-06T02:08:43.871Z,23.86
2018-07-06T02:09:15.527Z,23.87
2018-07-06T02:09:47.151Z,23.86
2018-07-06T02:10:18.776Z,23.87
2018-07-06T02:10:50.400Z,23.87
2018-07-06T02:11:22.064Z,23.87
2018-07-06T02:11:53.691Z,23.87
2018-07-06T02:12:25.315Z,23.87
2018-07-06T02:12:56.940Z,23.87
2018-07-06T02:13:28.562Z,23.86
2018-07-06T02:14:00.183Z,23.86
2018-07-06T02:14:31.799Z,23.86
2018-07-06T02:15:03.421Z,23.87
2018-07-06T02:15:35.044Z,23.84
2018-07-06T02:16:06.667Z,23.86
2018-07-06T02:16:38.292Z,23.86
2018-07-06T02:17:09.912Z,23.86
2018-07-06T02:17:41.531Z,23.85
2018-07-06T02:18:13.160Z,23.86
2018-07-06T02:18:44.784Z,23.86
2018-07-06T02:19:16.408Z,23.86
2018-07-06T02:19:48.035Z,23.85
2018-07-06T02:20:19.704Z,23.86
2018-07-06T02:20:51.327Z,23.86
2018-07-06T02:21:22.954Z,23.86
2018-07-06T02:21:54.808Z,23.87
2018-07-06T02:22:26.433Z,23.86
2018-07-06T02:22:58.055Z,23.86
2018-07-06T02:23:29.675Z,23.86
2018-07-06T02:24:01.295Z,23.86
2018-07-06T02:24:32.919Z,23.86
2018-07-06T02:25:04.544Z,23.86
2018-07-06T02:25:36.164Z,23.86
2018-07-06T02:26:07.783Z,23.86
2018-07-06T02:26:39.399Z,23.86
2018-07-06T02:27:11.076Z,23.86
2018-07-06T02:27:42.703Z,23.86
2018-07-06T02:28:14.328Z,23.86
2018-07-06T02:28:45.952Z,23.87
2018-07-06T02:29:17.576Z,23.87
2018-07-06T02:29:49.199Z,23.87
2018-07-06T02:30:20.824Z,23.87
2018-07-06T02:30:52.456Z,23.87
2018-07-06T02:31:24.082Z,23.87
2018-07-06T02:31:55.701Z,23.87
2018-07-06T02:32:27.374Z,23.87
2018-07-06T02:32:59.001Z,23.87
2018-07-06T02:33:30.624Z,23.86
2018-07-06T02:34:02.248Z,23.86
2018-07-06T02:34:33.887Z,23.87
2018-07-06T02:35:05.556Z,23.87
2018-07-06T02:35:37.180Z,23.87
2018-07-06T02:36:08.814Z,23.88
2018-07-06T02:36:40.479Z,23.89
2018-07-06T02:37:12.108Z,23.90
2018-07-06T02:37:43.740Z,23.90
2018-07-06T02:38:15.365Z,23.91
2018-07-06T02:38:46.988Z,23.91
2018-07-06T02:39:18.620Z,23.90
2018-07-06T02:39:50.245Z,23.92
2018-07-06T02:40:21.868Z,23.93
2018-07-06T02:40:53.488Z,23.97
2018-07-06T02:41:25.159Z,24.01
2018-07-06T02:41:56.780Z,24.07
2018-07-06T02:42:28.408Z,24.15
2018-07-06T02:43:00.032Z,24.20
2018-07-06T02:43:31.656Z,24.27
2018-07-06T02:44:03.279Z,24.28
2018-07-06T02:44:34.908Z,24.26
2018-07-06T02:45:06.532Z,24.26
2018-07-06T02:45:38.157Z,24.24
2018-07-06T02:46:09.779Z,24.20
2018-07-06T02:46:41.446Z,24.17
2018-07-06T02:47:13.072Z,24.11
2018-07-06T02:47:44.694Z,24.06
2018-07-06T02:48:16.314Z,24.01
2018-07-06T02:48:47.937Z,23.96
2018-07-06T02:49:19.558Z,23.91
2018-07-06T02:49:51.182Z,23.87
2018-07-06T02:50:22.805Z,23.84
2018-07-06T02:50:54.472Z,23.80
2018-07-06T02:51:26.092Z,23.77
2018-07-06T02:51:57.716Z,23.76
2018-07-06T02:52:29.331Z,23.75
2018-07-06T02:53:00.987Z,23.78
2018-07-06T02:53:32.639Z,23.83
2018-07-06T02:54:04.263Z,23.85
2018-07-06T02:54:35.889Z,23.85
2018-07-06T02:55:07.552Z,23.84
2018-07-06T02:55:39.536Z,23.82
2018-07-06T02:56:11.204Z,23.81
2018-07-06T02:56:42.836Z,23.81
2018-07-06T02:57:14.460Z,23.81
2018-07-06T02:57:46.084Z,23.82
2018-07-06T02:58:17.708Z,23.80
2018-07-06T02:58:49.332Z,23.80
2018-07-06T02:59:20.957Z,23.78
2018-07-06T02:59:52.588Z,23.76
2018-07-06T03:00:24.256Z,23.74
2018-07-06T03:00:55.879Z,23.73
2018-07-06T03:01:27.501Z,23.72
2018-07-06T03:01:59.135Z,23.69
2018-07-06T03:02:30.751Z,23.69
2018-07-06T03:03:02.376Z,23.68
2018-07-06T03:03:33.986Z,23.68
2018-07-06T03:04:05.593Z,23.67
2018-07-06T03:04:37.241Z,23.66
2018-07-06T03:05:08.849Z,23.65
2018-07-06T03:05:40.458Z,23.66
2018-07-06T03:06:12.056Z,23.65
2018-07-06T03:06:43.652Z,23.64
2018-07-06T03:07:15.257Z,23.64
2018-07-06T03:07:46.861Z,23.63
2018-07-06T03:08:18.465Z,23.63
2018-07-06T03:08:50.069Z,23.63
2018-07-06T03:09:21.682Z,23.61
2018-07-06T03:09:53.331Z,23.62
2018-07-06T03:10:24.942Z,23.61
2018-07-06T03:10:56.535Z,23.61
2018-07-06T03:11:28.142Z,23.61
2018-07-06T03:11:59.754Z,23.60
2018-07-06T03:12:31.349Z,23.60
2018-07-06T03:13:02.959Z,23.60
2018-07-06T03:13:34.617Z,23.59
2018-07-06T03:14:06.219Z,23.59
2018-07-06T03:14:37.821Z,23.58
2018-07-06T03:15:09.474Z,23.59
2018-07-06T03:15:41.072Z,23.58
2018-07-06T03:16:12.708Z,23.58
2018-07-06T03:16:44.344Z,23.57
2018-07-06T03:17:15.953Z,23.57
2018-07-06T03:17:47.548Z,23.57
2018-07-06T03:18:19.181Z,23.57
2018-07-06T03:18:50.790Z,23.57
2018-07-06T03:19:22.398Z,23.56
2018-07-06T03:19:54.005Z,23.56
2018-07-06T03:20:25.604Z,23.56
2018-07-06T03:20:57.199Z,23.56
2018-07-06T03:21:28.845Z,23.56
2018-07-06T03:22:00.450Z,23.54
2018-07-06T03:22:32.066Z,23.54
2018-07-06T03:23:03.673Z,23.55
2018-07-06T03:23:35.281Z,23.55
2018-07-06T03:24:06.889Z,23.55
2018-07-06T03:24:38.504Z,23.53
2018-07-06T03:25:10.113Z,23.54
2018-07-06T03:25:41.726Z,23.54
2018-07-06T03:26:13.369Z,23.53
2018-07-06T03:26:44.985Z,23.53
2018-07-06T03:27:16.597Z,23.53
2018-07-06T03:27:48.218Z,23.53
2018-07-06T03:28:19.884Z,23.52
2018-07-06T03:28:51.618Z,23.53
2018-07-06T03:29:23.096Z,23.52
2018-07-06T03:29:54.691Z,23.52
2018-07-06T03:30:26.288Z,23.52
2018-07-06T03:30:57.884Z,23.52
2018-07-06T03:31:29.498Z,23.52
2018-07-06T03:32:01.106Z,23.51
2018-07-06T03:32:32.699Z,23.51
2018-07-06T03:33:04.311Z,23.51
2018-07-06T03:33:35.919Z,23.51
2018-07-06T03:34:07.532Z,23.51
2018-07-06T03:34:39.145Z,23.51
2018-07-06T03:35:10.750Z,23.50
2018-07-06T03:35:42.344Z,23.51
2018-07-06T03:36:13.956Z,23.51
2018-07-06T03:36:45.563Z,23.50
2018-07-06T03:37:17.168Z,23.43
2018-07-06T03:37:48.780Z,23.49
2018-07-06T03:38:20.410Z,23.49
2018-07-06T03:38:52.008Z,23.49
2018-07-06T03:39:23.589Z,23.49
2018-07-06T03:39:55.187Z,23.50
2018-07-06T03:40:26.789Z,23.49
2018-07-06T03:40:58.386Z,23.49
2018-07-06T03:41:29.972Z,23.49
2018-07-06T03:42:01.543Z,23.48
2018-07-06T03:42:33.145Z,23.48
2018-07-06T03:43:04.718Z,23.47
2018-07-06T03:43:36.372Z,23.48
2018-07-06T03:44:08.035Z,23.49
2018-07-06T03:44:39.615Z,23.48
2018-07-06T03:45:11.203Z,23.48
2018-07-06T03:45:42.800Z,23.48
2018-07-06T03:46:14.415Z,23.47
2018-07-06T03:46:46.015Z,23.48
2018-07-06T03:47:17.601Z,23.47
2018-07-06T03:47:49.201Z,23.48
2018-07-06T03:48:20.850Z,23.48
2018-07-06T03:48:52.437Z,23.48
2018-07-06T03:49:24.097Z,23.47
2018-07-06T03:49:55.710Z,23.46
2018-07-06T03:50:27.316Z,23.47
2018-07-06T03:50:58.925Z,23.48
2018-07-06T03:51:30.514Z,23.48
2018-07-06T03:52:02.101Z,23.48
2018-07-06T03:52:33.692Z,23.47
2018-07-06T03:53:05.274Z,23.47
2018-07-06T03:53:36.854Z,23.47
2018-07-06T03:54:08.436Z,23.43
2018-07-06T03:54:40.062Z,23.47
2018-07-06T03:55:11.635Z,23.47
2018-07-06T03:55:43.218Z,23.48
2018-07-06T03:56:14.828Z,23.47
2018-07-06T03:56:46.418Z,23.48
2018-07-06T03:57:17.997Z,23.48
2018-07-06T03:57:49.564Z,23.47
2018-07-06T03:58:21.143Z,23.48
2018-07-06T03:58:52.789Z,23.48
2018-07-06T03:59:24.399Z,23.48
2018-07-06T03:59:56.009Z,23.48
2018-07-06T04:00:27.637Z,23.48
2018-07-06T04:00:59.209Z,23.48
2018-07-06T04:01:30.781Z,23.48
2018-07-06T04:02:02.377Z,23.49
2018-07-06T04:02:33.966Z,23.49
2018-07-06T04:03:05.550Z,23.49
2018-07-06T04:03:37.116Z,23.50
2018-07-06T04:04:08.730Z,23.50
2018-07-06T04:04:40.300Z,23.50
2018-07-06T04:05:11.892Z,23.49
2018-07-06T04:05:43.527Z,23.49
2018-07-06T04:06:15.113Z,23.49
2018-07-06T04:06:46.712Z,23.49
2018-07-06T04:07:18.301Z,23.49
2018-07-06T04:07:49.872Z,23.48
2018-07-06T04:08:21.478Z,23.47
2018-07-06T04:08:53.075Z,23.48
2018-07-06T04:09:24.658Z,23.47
2018-07-06T04:09:56.269Z,23.47
2018-07-06T04:10:27.902Z,23.47
2018-07-06T04:10:59.475Z,23.46
2018-07-06T04:11:31.072Z,23.45
2018-07-06T04:12:02.683Z,23.46
2018-07-06T04:12:34.252Z,23.46
2018-07-06T04:13:05.852Z,23.45
2018-07-06T04:13:37.462Z,23.45
2018-07-06T04:14:09.040Z,23.45
2018-07-06T04:14:40.618Z,23.43
2018-07-06T04:15:12.188Z,23.44
2018-07-06T04:15:43.823Z,23.43
2018-07-06T04:16:15.406Z,23.43
2018-07-06T04:16:46.989Z,23.43
2018-07-06T04:17:18.566Z,23.43
2018-07-06T04:17:50.172Z,23.43
2018-07-06T04:18:21.766Z,23.42
2018-07-06T04:18:53.374Z,23.43
2018-07-06T04:19:24.978Z,23.42
2018-07-06T04:19:56.565Z,23.42
2018-07-06T04:20:28.175Z,23.41
2018-07-06T04:20:59.781Z,23.42
2018-07-06T04:21:31.394Z,23.41
2018-07-06T04:22:02.968Z,23.41
2018-07-06T04:22:34.601Z,23.41
2018-07-06T04:23:06.186Z,23.41
2018-07-06T04:23:37.756Z,23.41
2018-07-06T04:24:09.338Z,23.40
2018-07-06T04:24:40.946Z,23.40
2018-07-06T04:25:12.547Z,23.40
2018-07-06T04:25:44.123Z,23.40
2018-07-06T04:26:15.726Z,23.39
2018-07-06T04:26:47.308Z,23.40
2018-07-06T04:27:18.890Z,23.39
2018-07-06T04:27:50.524Z,23.39
2018-07-06T04:28:22.110Z,23.39
2018-07-06T04:28:53.679Z,23.39
2018-07-06T04:29:25.281Z,23.39
2018-07-06T04:29:56.867Z,23.39
2018-07-06T04:30:28.481Z,23.37
2018-07-06T04:31:00.095Z,23.37
2018-07-06T04:31:31.672Z,23.38
2018-07-06T04:32:03.250Z,23.38
2018-07-06T04:32:34.850Z,23.38
2018-07-06T04:33:06.479Z,23.37
2018-07-06T04:33:38.072Z,23.38
2018-07-06T04:34:09.661Z,23.40
2018-07-06T04:34:41.269Z,23.41
2018-07-06T04:35:12.863Z,23.42
2018-07-06T04:35:44.441Z,23.42
2018-07-06T04:36:16.021Z,23.42
2018-07-06T04:36:47.633Z,23.41
2018-07-06T04:37:19.203Z,23.41
2018-07-06T04:37:50.809Z,23.41
2018-07-06T04:38:22.384Z,23.41
2018-07-06T04:38:53.963Z,23.41
2018-07-06T04:39:25.577Z,23.41
2018-07-06T04:39:57.148Z,23.43
2018-07-06T04:40:28.733Z,23.45
2018-07-06T04:41:00.338Z,23.48
2018-07-06T04:41:31.950Z,23.57
2018-07-06T04:42:03.563Z,23.61
2018-07-06T04:42:35.132Z,23.60
2018-07-06T04:43:06.737Z,23.57
2018-07-06T04:43:38.325Z,23.54
2018-07-06T04:44:09.903Z,23.52
2018-07-06T04:44:41.529Z,23.49
2018-07-06T04:45:13.164Z,23.47
2018-07-06T04:45:44.759Z,23.45
2018-07-06T04:46:16.356Z,23.44
2018-07-06T04:46:47.969Z,23.44
2018-07-06T04:47:19.563Z,23.42
2018-07-06T04:47:51.157Z,23.41
2018-07-06T04:48:22.751Z,23.41
2018-07-06T04:48:54.385Z,23.40
2018-07-06T04:49:25.969Z,23.39
2018-07-06T04:49:57.609Z,23.40
2018-07-06T04:50:29.204Z,23.39
2018-07-06T04:51:00.800Z,23.39
2018-07-06T04:51:32.415Z,23.39
2018-07-06T04:52:04.015Z,23.38
2018-07-06T04:52:35.596Z,23.38
2018-07-06T04:53:07.205Z,23.37
2018-07-06T04:53:38.779Z,23.38
2018-07-06T04:54:10.396Z,23.38
2018-07-06T04:54:41.978Z,23.36
2018-07-06T04:55:13.562Z,23.37
2018-07-06T04:55:45.142Z,23.37
2018-07-06T04:56:16.740Z,23.36
2018-07-06T04:56:48.350Z,23.37
2018-07-06T04:57:19.966Z,23.37
2018-07-06T04:57:51.556Z,23.37
2018-07-06T04:58:23.163Z,23.37
2018-07-06T04:58:54.772Z,23.37
2018-07-06T04:59:26.417Z,23.35
2018-07-06T04:59:58.079Z,23.36
2018-07-06T05:00:29.621Z,23.36
2018-07-06T05:01:01.194Z,23.36
2018-07-06T05:01:32.773Z,23.36
2018-07-06T05:02:04.353Z,23.36
2018-07-06T05:02:35.924Z,23.36
2018-07-06T05:03:07.525Z,23.36
2018-07-06T05:03:39.172Z,23.36
2018-07-06T05:04:10.767Z,23.36
2018-07-06T05:04:42.349Z,23.36
2018-07-06T05:05:13.943Z,23.36
2018-07-06T05:05:45.531Z,23.36
2018-07-06T05:06:17.110Z,23.36
2018-07-06T05:06:48.713Z,23.36
2018-07-06T05:07:20.301Z,23.36
2018-07-06T05:07:51.894Z,23.36
2018-07-06T05:08:23.501Z,23.36
2018-07-06T05:08:55.145Z,23.34
2018-07-06T05:09:26.769Z,23.35
2018-07-06T05:09:58.349Z,23.36
2018-07-06T05:10:29.953Z,23.36
2018-07-06T05:11:01.541Z,23.35
2018-07-06T05:11:33.122Z,23.35
2018-07-06T05:12:04.716Z,23.36
2018-07-06T05:12:36.320Z,23.36
2018-07-06T05:13:07.937Z,23.36
2018-07-06T05:13:39.518Z,23.36
2018-07-06T05:14:11.138Z,23.36
2018-07-06T05:14:42.732Z,23.36
2018-07-06T05:15:14.345Z,23.36
2018-07-06T05:15:45.931Z,23.36
2018-07-06T05:16:17.562Z,23.36
2018-07-06T05:16:49.275Z,23.36
2018-07-06T05:17:20.774Z,23.37
2018-07-06T05:17:52.381Z,23.36
2018-07-06T05:18:23.972Z,23.37
2018-07-06T05:18:55.552Z,23.37
2018-07-06T05:19:27.162Z,23.38
2018-07-06T05:19:58.747Z,23.39
2018-07-06T05:20:30.353Z,23.40
2018-07-06T05:21:01.934Z,23.41
2018-07-06T05:21:33.580Z,23.42
2018-07-06T05:22:05.374Z,23.42
2018-07-06T05:22:37.031Z,23.41
2018-07-06T05:23:08.603Z,23.42
2018-07-06T05:23:40.213Z,23.41
2018-07-06T05:24:11.829Z,23.42
2018-07-06T05:24:43.417Z,23.41
2018-07-06T05:25:15.013Z,23.42
2018-07-06T05:25:46.617Z,23.42
2018-07-06T05:26:18.205Z,23.41
2018-07-06T05:26:49.830Z,23.41
2018-07-06T05:27:21.413Z,23.41
2018-07-06T05:27:52.989Z,23.40
2018-07-06T05:28:24.556Z,23.40
2018-07-06T05:28:56.124Z,23.40
2018-07-06T05:29:27.705Z,23.39
2018-07-06T05:29:59.285Z,23.39
2018-07-06T05:30:30.873Z,23.38
2018-07-06T05:31:02.478Z,23.37
2018-07-06T05:31:34.085Z,23.36
2018-07-06T05:32:05.707Z,23.36
2018-07-06T05:32:37.290Z,23.35
2018-07-06T05:33:08.893Z,23.35
2018-07-06T05:33:40.478Z,23.36
2018-07-06T05:34:12.058Z,23.35
2018-07-06T05:34:43.658Z,23.35
2018-07-06T05:35:15.250Z,23.35
2018-07-06T05:35:46.824Z,23.34
2018-07-06T05:36:18.461Z,23.35
2018-07-06T05:36:50.039Z,23.34
2018-07-06T05:37:21.622Z,23.34
2018-07-06T05:37:53.275Z,23.34
2018-07-06T05:38:24.870Z,23.34
2018-07-06T05:38:56.467Z,23.34
2018-07-06T05:39:28.050Z,23.35
2018-07-06T05:39:59.653Z,23.34
2018-07-06T05:40:31.248Z,23.34
2018-07-06T05:41:02.834Z,23.34
2018-07-06T05:41:34.489Z,23.34
2018-07-06T05:42:06.060Z,23.34
2018-07-06T05:42:37.642Z,23.33
2018-07-06T05:43:09.216Z,23.32
2018-07-06T05:43:40.843Z,23.33
2018-07-06T05:44:12.412Z,23.32
2018-07-06T05:44:43.980Z,23.32
2018-07-06T05:45:15.575Z,23.32
2018-07-06T05:45:47.162Z,23.32
2018-07-06T05:46:18.811Z,23.30
2018-07-06T05:46:50.409Z,23.30
2018-07-06T05:47:22.066Z,23.31
2018-07-06T05:47:53.673Z,23.31
2018-07-06T05:48:25.271Z,23.31
2018-07-06T05:48:56.844Z,23.31
2018-07-06T05:49:28.425Z,23.31
2018-07-06T05:50:00.006Z,23.31
2018-07-06T05:50:31.629Z,23.32
2018-07-06T05:51:03.262Z,23.31
2018-07-06T05:51:34.856Z,23.32
2018-07-06T05:52:06.441Z,23.32
2018-07-06T05:52:38.068Z,23.31
2018-07-06T05:53:09.674Z,23.31
2018-07-06T05:53:41.299Z,23.31
2018-07-06T05:54:12.869Z,23.31
2018-07-06T05:54:44.453Z,23.31
2018-07-06T05:55:16.062Z,23.31
2018-07-06T05:55:47.672Z,23.31
2018-07-06T05:56:19.305Z,23.31
2018-07-06T05:56:50.885Z,23.31
2018-07-06T05:57:22.470Z,23.31
2018-07-06T05:57:54.040Z,23.32
2018-07-06T05:58:25.645Z,23.32
2018-07-06T05:58:57.262Z,23.33
2018-07-06T05:59:28.868Z,23.33
2018-07-06T06:00:00.450Z,23.34
2018-07-06T06:00:32.034Z,23.35
2018-07-06T06:01:03.612Z,23.34
2018-07-06T06:01:35.233Z,23.35
2018-07-06T06:02:06.817Z,23.36
2018-07-06T06:02:38.384Z,23.36
2018-07-06T06:03:09.990Z,23.36
2018-07-06T06:03:41.584Z,23.36
2018-07-06T06:04:13.189Z,23.38
2018-07-06T06:04:44.788Z,23.37
2018-07-06T06:05:16.384Z,23.38
2018-07-06T06:05:47.985Z,23.38
2018-07-06T06:06:19.634Z,23.39
2018-07-06T06:06:51.239Z,23.39
2018-07-06T06:07:22.818Z,23.40
2018-07-06T06:07:54.428Z,23.40
2018-07-06T06:08:26.077Z,23.39
2018-07-06T06:08:57.672Z,23.39
2018-07-06T06:09:29.312Z,23.39
2018-07-06T06:10:00.912Z,23.38
2018-07-06T06:10:32.493Z,23.38
2018-07-06T06:11:04.060Z,23.39
2018-07-06T06:11:35.656Z,23.38
2018-07-06T06:12:07.284Z,23.38
2018-07-06T06:12:38.866Z,23.38
2018-07-06T06:13:10.442Z,23.37
2018-07-06T06:13:42.013Z,23.37
2018-07-06T06:14:13.598Z,23.37
2018-07-06T06:14:45.197Z,23.36
2018-07-06T06:15:16.848Z,23.36
2018-07-06T06:15:48.439Z,23.37
2018-07-06T06:16:20.023Z,23.37
2018-07-06T06:16:51.600Z,23.37
2018-07-06T06:17:23.192Z,23.37
2018-07-06T06:17:54.772Z,23.38
2018-07-06T06:18:26.436Z,23.37
2018-07-06T06:18:58.199Z,23.38
2018-07-06T06:19:29.626Z,23.37
2018-07-06T06:20:01.244Z,23.38
2018-07-06T06:20:32.902Z,23.38
2018-07-06T06:21:04.472Z,23.37
2018-07-06T06:21:36.053Z,23.37
2018-07-06T06:22:07.638Z,23.37
2018-07-06T06:22:39.232Z,23.37
2018-07-06T06:23:10.824Z,23.37
2018-07-06T06:23:42.413Z,23.36
2018-07-06T06:24:13.993Z,23.35
2018-07-06T06:24:45.615Z,23.36
2018-07-06T06:25:17.222Z,23.35
2018-07-06T06:25:48.809Z,23.34
2018-07-06T06:26:20.394Z,23.34
2018-07-06T06:26:52.001Z,23.33
2018-07-06T06:27:23.608Z,23.34
2018-07-06T06:27:55.203Z,23.33
2018-07-06T06:28:26.814Z,23.33
2018-07-06T06:28:58.384Z,23.33
2018-07-06T06:29:30.001Z,23.33
2018-07-06T06:30:01.580Z,23.33
2018-07-06T06:30:33.148Z,23.32
2018-07-06T06:31:04.779Z,23.32
2018-07-06T06:31:36.389Z,23.32
2018-07-06T06:32:07.987Z,23.32
2018-07-06T06:32:39.642Z,23.31
2018-07-06T06:33:11.374Z,23.31
2018-07-06T06:33:42.952Z,23.31
2018-07-06T06:34:14.516Z,23.31
2018-07-06T06:34:46.112Z,23.31
2018-07-06T06:35:17.692Z,23.31
2018-07-06T06:35:49.338Z,23.32
2018-07-06T06:36:20.925Z,23.32
2018-07-06T06:36:52.533Z,23.32
2018-07-06T06:37:24.122Z,23.33
2018-07-06T06:37:55.688Z,23.32
2018-07-06T06:38:27.297Z,23.33
2018-07-06T06:38:58.910Z,23.33
2018-07-06T06:39:30.519Z,23.33
2018-07-06T06:40:02.114Z,23.34
2018-07-06T06:40:33.684Z,23.33
2018-07-06T06:41:05.323Z,23.32
2018-07-06T06:41:36.933Z,23.33
2018-07-06T06:42:08.536Z,23.34
2018-07-06T06:42:40.142Z,23.33
2018-07-06T06:43:11.717Z,23.34
2018-07-06T06:43:43.301Z,23.34
2018-07-06T06:44:14.886Z,23.34
2018-07-06T06:44:46.532Z,23.33
2018-07-06T06:45:18.117Z,23.34
2018-07-06T06:45:49.689Z,23.34
2018-07-06T06:46:21.318Z,23.34
2018-07-06T06:46:52.941Z,23.34